sensor_id;sensor_type;location;lat;lon;timestamp;pressure;altitude;pressure_sealevel;temperature;humidity
76156;BME280;64906;51.290;7.348;2023-08-12T00:02:24;99008.16;;;21.61;58.44
76156;BME280;64906;51.290;7.348;2023-08-12T00:04:49;99013.41;;;21.58;58.56
76156;BME280;64906;51.290;7.348;2023-08-12T00:07:15;99012.88;;;21.56;58.67
76156;BME280;64906;51.290;7.348;2023-08-12T00:09:40;99008.22;;;21.56;58.68
76156;BME280;64906;51.290;7.348;2023-08-12T00:12:05;99014.75;;;21.60;58.38
76156;BME280;64906;51.290;7.348;2023-08-12T00:14:31;98998.94;;;21.52;58.77
76156;BME280;64906;51.290;7.348;2023-08-12T00:16:56;98994.47;;;21.56;58.59
76156;BME280;64906;51.290;7.348;2023-08-12T00:19:21;98990.41;;;21.54;58.59
76156;BME280;64906;51.290;7.348;2023-08-12T00:21:47;98992.84;;;21.55;58.42
76156;BME280;64906;51.290;7.348;2023-08-12T00:24:12;98995.59;;;21.55;58.40
76156;BME280;64906;51.290;7.348;2023-08-12T00:26:37;98991.50;;;21.53;58.42
76156;BME280;64906;51.290;7.348;2023-08-12T00:29:03;98988.16;;;21.56;58.52
76156;BME280;64906;51.290;7.348;2023-08-12T00:31:28;98980.44;;;21.58;58.30
76156;BME280;64906;51.290;7.348;2023-08-12T00:33:53;98988.16;;;21.56;58.61
76156;BME280;64906;51.290;7.348;2023-08-12T00:36:19;98982.66;;;21.56;58.56
76156;BME280;64906;51.290;7.348;2023-08-12T00:38:44;98988.97;;;21.56;58.72
76156;BME280;64906;51.290;7.348;2023-08-12T00:41:09;98987.34;;;21.55;58.90
76156;BME280;64906;51.290;7.348;2023-08-12T00:43:34;98982.41;;;21.57;58.21
76156;BME280;64906;51.290;7.348;2023-08-12T00:46:00;98982.47;;;21.52;58.77
76156;BME280;64906;51.290;7.348;2023-08-12T00:48:25;98990.91;;;21.56;58.14
76156;BME280;64906;51.290;7.348;2023-08-12T00:50:51;98987.34;;;21.55;58.40
76156;BME280;64906;51.290;7.348;2023-08-12T00:53:17;98984.91;;;21.54;58.85
76156;BME280;64906;51.290;7.348;2023-08-12T00:55:43;98980.50;;;21.53;58.58
76156;BME280;64906;51.290;7.348;2023-08-12T00:58:08;98991.50;;;21.53;58.48
76156;BME280;64906;51.290;7.348;2023-08-12T01:00:33;98990.09;;;21.55;58.24
76156;BME280;64906;51.290;7.348;2023-08-12T01:03:00;98983.25;;;21.53;58.41
76156;BME280;64906;51.290;7.348;2023-08-12T01:05:25;98987.66;;;21.54;58.73
76156;BME280;64906;51.290;7.348;2023-08-12T01:07:50;98986.00;;;21.53;58.38
76156;BME280;64906;51.290;7.348;2023-08-12T01:10:19;98984.59;;;21.55;58.28
76156;BME280;64906;51.290;7.348;2023-08-12T01:12:52;98981.88;;;21.55;58.31
76156;BME280;64906;51.290;7.348;2023-08-12T01:15:24;98981.63;;;21.52;58.65
76156;BME280;64906;51.290;7.348;2023-08-12T01:17:51;98987.41;;;21.50;58.80
76156;BME280;64906;51.290;7.348;2023-08-12T01:20:20;98992.31;;;21.53;58.49
76156;BME280;64906;51.290;7.348;2023-08-12T01:22:56;98995.06;;;21.53;58.44
76156;BME280;64906;51.290;7.348;2023-08-12T01:25:23;98986.88;;;21.48;58.96
76156;BME280;64906;51.290;7.348;2023-08-12T01:27:49;98975.91;;;21.48;58.36
76156;BME280;64906;51.290;7.348;2023-08-12T01:30:14;98976.13;;;21.52;58.35
76156;BME280;64906;51.290;7.348;2023-08-12T01:33:04;98965.16;;;21.52;58.44
76156;BME280;64906;51.290;7.348;2023-08-12T01:35:36;98958.53;;;21.53;58.27
76156;BME280;64906;51.290;7.348;2023-08-12T01:38:05;98946.75;;;21.52;58.68
76156;BME280;64906;51.290;7.348;2023-08-12T01:40:32;98953.88;;;21.53;58.50
76156;BME280;64906;51.290;7.348;2023-08-12T01:42:58;98944.06;;;21.47;58.44
76156;BME280;64906;51.290;7.348;2023-08-12T01:45:24;98949.78;;;21.51;58.64
76156;BME280;64906;51.290;7.348;2023-08-12T01:47:49;98944.78;;;21.53;58.53
76156;BME280;64906;51.290;7.348;2023-08-12T01:50:16;98944.56;;;21.49;58.59
76156;BME280;64906;51.290;7.348;2023-08-12T01:52:41;98939.16;;;21.44;58.58
76156;BME280;64906;51.290;7.348;2023-08-12T01:55:07;98942.41;;;21.46;58.68
76156;BME280;64906;51.290;7.348;2023-08-12T01:57:32;98940.25;;;21.43;58.84
76156;BME280;64906;51.290;7.348;2023-08-12T01:59:58;98941.31;;;21.47;58.55
76156;BME280;64906;51.290;7.348;2023-08-12T02:02:23;98947.41;;;21.44;58.68
76156;BME280;64906;51.290;7.348;2023-08-12T02:04:48;98944.94;;;21.43;58.53
76156;BME280;64906;51.290;7.348;2023-08-12T02:07:13;98933.38;;;21.46;58.42
76156;BME280;64906;51.290;7.348;2023-08-12T02:09:39;98934.41;;;21.50;58.57
76156;BME280;64906;51.290;7.348;2023-08-12T02:12:04;98931.56;;;21.36;58.84
76156;BME280;64906;51.290;7.348;2023-08-12T02:14:30;98931.72;;;21.45;58.42
76156;BME280;64906;51.290;7.348;2023-08-12T02:16:55;98922.88;;;21.48;58.05
76156;BME280;64906;51.290;7.348;2023-08-12T02:19:20;98914.00;;;21.37;58.84
76156;BME280;64906;51.290;7.348;2023-08-12T02:21:46;98910.66;;;21.40;58.58
76156;BME280;64906;51.290;7.348;2023-08-12T02:24:11;98912.63;;;21.34;58.74
76156;BME280;64906;51.290;7.348;2023-08-12T02:26:37;98910.13;;;21.38;58.71
76156;BME280;64906;51.290;7.348;2023-08-12T02:29:02;98917.03;;;21.36;58.83
76156;BME280;64906;51.290;7.348;2023-08-12T02:31:28;98920.50;;;21.41;58.42
76156;BME280;64906;51.290;7.348;2023-08-12T02:33:53;98920.31;;;21.38;58.38
76156;BME280;64906;51.290;7.348;2023-08-12T02:36:18;98924.31;;;21.45;58.29
76156;BME280;64906;51.290;7.348;2023-08-12T02:38:44;98916.72;;;21.37;58.54
76156;BME280;64906;51.290;7.348;2023-08-12T02:41:09;98910.13;;;21.38;58.54
76156;BME280;64906;51.290;7.348;2023-08-12T02:43:34;98911.25;;;21.37;58.29
76156;BME280;64906;51.290;7.348;2023-08-12T02:46:00;98907.97;;;21.35;58.73
76156;BME280;64906;51.290;7.348;2023-08-12T02:48:25;98910.72;;;21.35;58.96
76156;BME280;64906;51.290;7.348;2023-08-12T02:50:50;98900.78;;;21.39;58.82
76156;BME280;64906;51.290;7.348;2023-08-12T02:53:16;98897.06;;;21.30;58.75
76156;BME280;64906;51.290;7.348;2023-08-12T02:55:42;98892.53;;;21.39;57.97
76156;BME280;64906;51.290;7.348;2023-08-12T02:58:07;98889.34;;;21.32;58.36
76156;BME280;64906;51.290;7.348;2023-08-12T03:00:32;98887.97;;;21.29;58.52
76156;BME280;64906;51.290;7.348;2023-08-12T03:02:58;98886.81;;;21.36;58.48
76156;BME280;64906;51.290;7.348;2023-08-12T03:05:23;98883.31;;;21.30;58.84
76156;BME280;64906;51.290;7.348;2023-08-12T03:07:49;98881.09;;;21.32;58.44
76156;BME280;64906;51.290;7.348;2023-08-12T03:10:14;98879.97;;;21.33;58.64
76156;BME280;64906;51.290;7.348;2023-08-12T03:12:40;98870.66;;;21.34;58.44
76156;BME280;64906;51.290;7.348;2023-08-12T03:15:06;98875.09;;;21.30;58.68
76156;BME280;64906;51.290;7.348;2023-08-12T03:17:32;98879.19;;;21.33;58.54
76156;BME280;64906;51.290;7.348;2023-08-12T03:19:58;98871.97;;;21.37;58.75
76156;BME280;64906;51.290;7.348;2023-08-12T03:22:29;98861.59;;;21.33;58.66
76156;BME280;64906;51.290;7.348;2023-08-12T03:24:54;98861.06;;;21.31;58.67
76156;BME280;64906;51.290;7.348;2023-08-12T03:27:20;98862.41;;;21.34;58.51
76156;BME280;64906;51.290;7.348;2023-08-12T03:29:45;98849.47;;;21.34;58.47
76156;BME280;64906;51.290;7.348;2023-08-12T03:32:10;98846.22;;;21.33;58.75
76156;BME280;64906;51.290;7.348;2023-08-12T03:34:36;98852.03;;;21.31;58.74
76156;BME280;64906;51.290;7.348;2023-08-12T03:37:01;98855.78;;;21.35;58.81
76156;BME280;64906;51.290;7.348;2023-08-12T03:39:26;98850.31;;;21.35;58.38
76156;BME280;64906;51.290;7.348;2023-08-12T03:41:51;98854.97;;;21.34;58.71
76156;BME280;64906;51.290;7.348;2023-08-12T03:44:18;98854.75;;;21.31;58.65
76156;BME280;64906;51.290;7.348;2023-08-12T03:46:43;98847.63;;;21.30;58.52
76156;BME280;64906;51.290;7.348;2023-08-12T03:49:08;98844.81;;;21.35;58.41
76156;BME280;64906;51.290;7.348;2023-08-12T03:51:33;98840.94;;;21.36;58.36
76156;BME280;64906;51.290;7.348;2023-08-12T03:53:59;98835.44;;;21.36;58.75
76156;BME280;64906;51.290;7.348;2023-08-12T03:56:24;98837.16;;;21.32;58.60
76156;BME280;64906;51.290;7.348;2023-08-12T03:58:49;98829.47;;;21.34;58.57
76156;BME280;64906;51.290;7.348;2023-08-12T04:01:15;98828.09;;;21.31;58.76
76156;BME280;64906;51.290;7.348;2023-08-12T04:03:40;98828.63;;;21.33;58.76
76156;BME280;64906;51.290;7.348;2023-08-12T04:06:05;98825.88;;;21.33;58.55
76156;BME280;64906;51.290;7.348;2023-08-12T04:08:31;98815.94;;;21.38;58.36
76156;BME280;64906;51.290;7.348;2023-08-12T04:10:57;98815.72;;;21.34;58.69
76156;BME280;64906;51.290;7.348;2023-08-12T04:13:22;98806.13;;;21.31;58.35
76156;BME280;64906;51.290;7.348;2023-08-12T04:15:49;98825.88;;;21.33;58.30
76156;BME280;64906;51.290;7.348;2023-08-12T04:18:15;98819.06;;;21.31;58.39
76156;BME280;64906;51.290;7.348;2023-08-12T04:20:41;98819.25;;;21.34;58.49
76156;BME280;64906;51.290;7.348;2023-08-12T04:23:06;98808.81;;;21.37;58.04
76156;BME280;64906;51.290;7.348;2023-08-12T04:25:31;98800.66;;;21.31;58.48
76156;BME280;64906;51.290;7.348;2023-08-12T04:27:57;98792.41;;;21.31;58.66
76156;BME280;64906;51.290;7.348;2023-08-12T04:30:23;98797.53;;;21.38;58.42
76156;BME280;64906;51.290;7.348;2023-08-12T04:32:48;98801.25;;;21.28;58.69
76156;BME280;64906;51.290;7.348;2023-08-12T04:35:13;98787.22;;;21.30;58.64
76156;BME280;64906;51.290;7.348;2023-08-12T04:37:38;98786.84;;;21.37;58.51
76156;BME280;64906;51.290;7.348;2023-08-12T04:40:04;98792.31;;;21.37;58.59
76156;BME280;64906;51.290;7.348;2023-08-12T04:42:30;98783.38;;;21.31;58.66
76156;BME280;64906;51.290;7.348;2023-08-12T04:44:55;98782.25;;;21.32;58.58
76156;BME280;64906;51.290;7.348;2023-08-12T04:47:20;98777.88;;;21.31;58.56
76156;BME280;64906;51.290;7.348;2023-08-12T04:49:46;98783.44;;;21.26;58.80
76156;BME280;64906;51.290;7.348;2023-08-12T04:52:11;98783.94;;;21.28;58.43
76156;BME280;64906;51.290;7.348;2023-08-12T04:54:36;98787.22;;;21.30;58.63
76156;BME280;64906;51.290;7.348;2023-08-12T04:57:02;98785.59;;;21.29;58.74
76156;BME280;64906;51.290;7.348;2023-08-12T04:59:27;98778.69;;;21.31;58.76
76156;BME280;64906;51.290;7.348;2023-08-12T05:01:52;98770.75;;;21.30;58.30
76156;BME280;64906;51.290;7.348;2023-08-12T05:04:17;98769.34;;;21.33;58.59
76156;BME280;64906;51.290;7.348;2023-08-12T05:06:43;98769.41;;;21.27;58.60
76156;BME280;64906;51.290;7.348;2023-08-12T05:09:08;98770.81;;;21.25;58.66
76156;BME280;64906;51.290;7.348;2023-08-12T05:11:33;98765.31;;;21.25;58.85
76156;BME280;64906;51.290;7.348;2023-08-12T05:13:59;98766.75;;;21.22;58.58
76156;BME280;64906;51.290;7.348;2023-08-12T05:16:24;98769.72;;;21.26;58.67
76156;BME280;64906;51.290;7.348;2023-08-12T05:18:49;98771.25;;;21.32;58.25
76156;BME280;64906;51.290;7.348;2023-08-12T05:21:14;98774.84;;;21.33;58.53
76156;BME280;64906;51.290;7.348;2023-08-12T05:23:40;98772.28;;;21.36;58.09
76156;BME280;64906;51.290;7.348;2023-08-12T05:26:05;98774.94;;;21.41;57.90
76156;BME280;64906;51.290;7.348;2023-08-12T05:28:30;98776.38;;;21.39;58.21
76156;BME280;64906;51.290;7.348;2023-08-12T05:30:55;98770.81;;;21.44;58.25
76156;BME280;64906;51.290;7.348;2023-08-12T05:33:21;98767.25;;;21.43;58.26
76156;BME280;64906;51.290;7.348;2023-08-12T05:35:47;98761.66;;;21.48;57.62
76156;BME280;64906;51.290;7.348;2023-08-12T05:38:13;98763.41;;;21.44;57.87
76156;BME280;64906;51.290;7.348;2023-08-12T05:40:38;98769.75;;;21.40;58.13
76156;BME280;64906;51.290;7.348;2023-08-12T05:43:03;98771.09;;;21.42;58.08
76156;BME280;64906;51.290;7.348;2023-08-12T05:45:29;98777.84;;;21.50;57.84
76156;BME280;64906;51.290;7.348;2023-08-12T05:47:54;98769.28;;;21.51;58.09
76156;BME280;64906;51.290;7.348;2023-08-12T05:50:19;98766.25;;;21.53;57.74
76156;BME280;64906;51.290;7.348;2023-08-12T05:52:44;98771.75;;;21.53;57.75
76156;BME280;64906;51.290;7.348;2023-08-12T05:55:10;98771.13;;;21.56;57.68
76156;BME280;64906;51.290;7.348;2023-08-12T05:57:35;98767.38;;;21.52;58.03
76156;BME280;64906;51.290;7.348;2023-08-12T06:00:00;98773.88;;;21.56;57.80
76156;BME280;64906;51.290;7.348;2023-08-12T06:02:26;98780.22;;;21.56;57.76
76156;BME280;64906;51.290;7.348;2023-08-12T06:04:51;98779.50;;;21.51;57.95
76156;BME280;64906;51.290;7.348;2023-08-12T06:07:17;98774.78;;;21.51;57.97
76156;BME280;64906;51.290;7.348;2023-08-12T06:09:43;98776.16;;;21.54;58.16
76156;BME280;64906;51.290;7.348;2023-08-12T06:12:09;98767.06;;;21.53;57.97
76156;BME280;64906;51.290;7.348;2023-08-12T06:14:38;98775.00;;;21.55;57.89
76156;BME280;64906;51.290;7.348;2023-08-12T06:17:04;98777.25;;;21.53;57.76
76156;BME280;64906;51.290;7.348;2023-08-12T06:19:29;98775.91;;;21.50;57.53
76156;BME280;64906;51.290;7.348;2023-08-12T06:21:55;98772.34;;;21.50;57.81
76156;BME280;64906;51.290;7.348;2023-08-12T06:24:20;98776.75;;;21.51;57.67
76156;BME280;64906;51.290;7.348;2023-08-12T06:26:45;98777.31;;;21.48;57.79
76156;BME280;64906;51.290;7.348;2023-08-12T06:29:10;98779.28;;;21.47;57.72
76156;BME280;64906;51.290;7.348;2023-08-12T06:31:36;98778.44;;;21.47;58.24
76156;BME280;64906;51.290;7.348;2023-08-12T06:34:01;98774.38;;;21.44;57.70
76156;BME280;64906;51.290;7.348;2023-08-12T06:36:27;98770.81;;;21.44;58.15
76156;BME280;64906;51.290;7.348;2023-08-12T06:38:52;98768.28;;;21.47;57.84
76156;BME280;64906;51.290;7.348;2023-08-12T06:41:17;98765.84;;;21.46;57.84
76156;BME280;64906;51.290;7.348;2023-08-12T06:43:43;98755.34;;;21.48;57.89
76156;BME280;64906;51.290;7.348;2023-08-12T06:46:09;98748.22;;;21.47;58.17
76156;BME280;64906;51.290;7.348;2023-08-12T06:48:34;98757.50;;;21.51;57.77
76156;BME280;64906;51.290;7.348;2023-08-12T06:51:00;98751.28;;;21.45;58.09
76156;BME280;64906;51.290;7.348;2023-08-12T06:53:26;98744.75;;;21.41;58.10
76156;BME280;64906;51.290;7.348;2023-08-12T06:55:51;98736.19;;;21.43;58.20
76156;BME280;64906;51.290;7.348;2023-08-12T06:58:17;98734.19;;;21.48;57.92
76156;BME280;64906;51.290;7.348;2023-08-12T07:00:42;98733.38;;;21.48;58.04
76156;BME280;64906;51.290;7.348;2023-08-12T07:03:08;98719.84;;;21.38;58.06
76156;BME280;64906;51.290;7.348;2023-08-12T07:05:33;98715.78;;;21.49;57.77
76156;BME280;64906;51.290;7.348;2023-08-12T07:07:58;98708.97;;;21.46;57.77
76156;BME280;64906;51.290;7.348;2023-08-12T07:10:24;98714.22;;;21.43;57.90
76156;BME280;64906;51.290;7.348;2023-08-12T07:12:49;98708.97;;;21.46;57.66
76156;BME280;64906;51.290;7.348;2023-08-12T07:15:14;98708.75;;;21.43;57.83
76156;BME280;64906;51.290;7.348;2023-08-12T07:17:40;98699.09;;;21.45;58.12
76156;BME280;64906;51.290;7.348;2023-08-12T07:20:06;98703.97;;;21.48;57.79
76156;BME280;64906;51.290;7.348;2023-08-12T07:22:31;98684.53;;;21.45;58.17
76156;BME280;64906;51.290;7.348;2023-08-12T07:24:57;98680.88;;;21.49;58.10
76156;BME280;64906;51.290;7.348;2023-08-12T07:27:25;98667.53;;;21.43;57.90
76156;BME280;64906;51.290;7.348;2023-08-12T07:29:51;98673.16;;;21.51;57.98
76156;BME280;64906;51.290;7.348;2023-08-12T07:32:16;98674.28;;;21.50;57.60
76156;BME280;64906;51.290;7.348;2023-08-12T07:34:41;98672.16;;;21.47;57.90
76156;BME280;64906;51.290;7.348;2023-08-12T07:37:07;98704.13;;;21.57;57.90
76156;BME280;64906;51.290;7.348;2023-08-12T07:39:32;98706.94;;;21.52;57.67
76156;BME280;64906;51.290;7.348;2023-08-12T07:41:57;98725.88;;;21.53;57.64
76156;BME280;64906;51.290;7.348;2023-08-12T07:44:22;98728.94;;;21.52;57.67
76156;BME280;64906;51.290;7.348;2023-08-12T07:46:48;98725.13;;;21.48;58.16
76156;BME280;64906;51.290;7.348;2023-08-12T07:49:15;98727.31;;;21.51;57.84
76156;BME280;64906;51.290;7.348;2023-08-12T07:51:40;98728.69;;;21.48;57.92
76156;BME280;64906;51.290;7.348;2023-08-12T07:54:06;98724.66;;;21.46;58.33
76156;BME280;64906;51.290;7.348;2023-08-12T07:56:31;98727.56;;;21.49;58.26
76156;BME280;64906;51.290;7.348;2023-08-12T07:58:57;98721.59;;;21.47;58.25
76156;BME280;64906;51.290;7.348;2023-08-12T08:01:22;98727.38;;;21.46;57.96
76156;BME280;64906;51.290;7.348;2023-08-12T08:03:47;98724.13;;;21.44;58.36
76156;BME280;64906;51.290;7.348;2023-08-12T08:06:13;98719.94;;;21.46;57.92
76156;BME280;64906;51.290;7.348;2023-08-12T08:08:38;98720.47;;;21.48;58.29
76156;BME280;64906;51.290;7.348;2023-08-12T08:11:03;98715.19;;;21.52;58.00
76156;BME280;64906;51.290;7.348;2023-08-12T08:13:29;98707.78;;;21.52;57.90
76156;BME280;64906;51.290;7.348;2023-08-12T08:15:54;98684.66;;;21.53;58.14
76156;BME280;64906;51.290;7.348;2023-08-12T08:18:19;98706.13;;;21.51;58.11
76156;BME280;64906;51.290;7.348;2023-08-12T08:20:45;98710.59;;;21.47;57.98
76156;BME280;64906;51.290;7.348;2023-08-12T08:23:10;98709.38;;;21.53;58.21
76156;BME280;64906;51.290;7.348;2023-08-12T08:25:35;98708.88;;;21.51;57.83
76156;BME280;64906;51.290;7.348;2023-08-12T08:28:01;98713.28;;;21.52;58.10
76156;BME280;64906;51.290;7.348;2023-08-12T08:30:26;98716.00;;;21.52;57.86
76156;BME280;64906;51.290;7.348;2023-08-12T08:32:52;98716.00;;;21.52;58.10
76156;BME280;64906;51.290;7.348;2023-08-12T08:35:17;98709.91;;;21.55;58.01
76156;BME280;64906;51.290;7.348;2023-08-12T08:37:42;98708.25;;;21.54;57.89
76156;BME280;64906;51.290;7.348;2023-08-12T08:40:08;98717.25;;;21.60;57.55
76156;BME280;64906;51.290;7.348;2023-08-12T08:42:34;98711.84;;;21.55;57.85
76156;BME280;64906;51.290;7.348;2023-08-12T08:45:01;98713.28;;;21.52;57.71
76156;BME280;64906;51.290;7.348;2023-08-12T08:47:27;98714.06;;;21.53;57.94
76156;BME280;64906;51.290;7.348;2023-08-12T08:49:56;98709.59;;;21.57;57.83
76156;BME280;64906;51.290;7.348;2023-08-12T08:52:23;98711.53;;;21.56;58.03
76156;BME280;64906;51.290;7.348;2023-08-12T08:54:48;98706.25;;;21.60;58.04
76156;BME280;64906;51.290;7.348;2023-08-12T08:57:13;98700.47;;;21.61;57.90
76156;BME280;64906;51.290;7.348;2023-08-12T08:59:39;98714.72;;;21.63;57.54
76156;BME280;64906;51.290;7.348;2023-08-12T09:02:04;98714.50;;;21.60;57.73
76156;BME280;64906;51.290;7.348;2023-08-12T09:04:32;98721.31;;;21.62;57.63
76156;BME280;64906;51.290;7.348;2023-08-12T09:06:58;98716.13;;;21.61;58.03
76156;BME280;64906;51.290;7.348;2023-08-12T09:09:24;98721.31;;;21.62;57.80
76156;BME280;64906;51.290;7.348;2023-08-12T09:11:51;98736.78;;;21.58;58.09
76156;BME280;64906;51.290;7.348;2023-08-12T09:14:17;98732.41;;;21.57;57.89
76156;BME280;64906;51.290;7.348;2023-08-12T09:16:43;98733.50;;;21.56;57.98
76156;BME280;64906;51.290;7.348;2023-08-12T09:19:09;98734.34;;;21.57;58.01
76156;BME280;64906;51.290;7.348;2023-08-12T09:21:34;98743.09;;;21.59;57.84
76156;BME280;64906;51.290;7.348;2023-08-12T09:24:03;98738.41;;;21.59;57.72
76156;BME280;64906;51.290;7.348;2023-08-12T09:26:29;98729.84;;;21.61;57.92
76156;BME280;64906;51.290;7.348;2023-08-12T09:28:55;98725.09;;;21.66;57.88
76156;BME280;64906;51.290;7.348;2023-08-12T09:31:30;98724.88;;;21.63;57.79
76156;BME280;64906;51.290;7.348;2023-08-12T09:34:03;98722.34;;;21.66;57.96
76156;BME280;64906;51.290;7.348;2023-08-12T09:36:30;98713.50;;;21.69;57.78
76156;BME280;64906;51.290;7.348;2023-08-12T09:38:56;98711.22;;;21.76;57.67
76156;BME280;64906;51.290;7.348;2023-08-12T09:41:24;98719.66;;;21.80;57.24
76156;BME280;64906;51.290;7.348;2023-08-12T09:43:51;98710.59;;;21.79;57.74
76156;BME280;64906;51.290;7.348;2023-08-12T09:46:18;98720.38;;;21.85;57.26
76156;BME280;64906;51.290;7.348;2023-08-12T09:48:43;98722.53;;;21.88;56.95
76156;BME280;64906;51.290;7.348;2023-08-12T09:51:08;98714.00;;;21.90;57.35
76156;BME280;64906;51.290;7.348;2023-08-12T09:53:34;98719.78;;;21.88;57.09
76156;BME280;64906;51.290;7.348;2023-08-12T09:56:06;98712.94;;;21.86;57.07
76156;BME280;64906;51.290;7.348;2023-08-12T09:58:33;98729.13;;;21.87;57.20
76156;BME280;64906;51.290;7.348;2023-08-12T10:01:03;98724.78;;;21.86;57.14
76156;BME280;64906;51.290;7.348;2023-08-12T10:03:28;98726.38;;;21.87;57.42
76156;BME280;64906;51.290;7.348;2023-08-12T10:05:54;98719.50;;;21.90;57.32
76156;BME280;64906;51.290;7.348;2023-08-12T10:08:19;98727.91;;;21.93;57.03
76156;BME280;64906;51.290;7.348;2023-08-12T10:10:45;98728.53;;;21.90;57.27
76156;BME280;64906;51.290;7.348;2023-08-12T10:13:11;98726.59;;;21.91;57.43
76156;BME280;64906;51.290;7.348;2023-08-12T10:15:37;98723.84;;;21.91;57.51
76156;BME280;64906;51.290;7.348;2023-08-12T10:18:04;98728.03;;;21.88;57.57
76156;BME280;64906;51.290;7.348;2023-08-12T10:20:31;98727.44;;;21.91;57.04
76156;BME280;64906;51.290;7.348;2023-08-12T10:22:58;98732.63;;;21.93;57.44
76156;BME280;64906;51.290;7.348;2023-08-12T10:25:24;98725.38;;;21.97;57.39
76156;BME280;64906;51.290;7.348;2023-08-12T10:27:50;98723.97;;;21.99;57.04
76156;BME280;64906;51.290;7.348;2023-08-12T10:30:16;98727.91;;;21.93;57.11
76156;BME280;64906;51.290;7.348;2023-08-12T10:32:42;98723.97;;;21.99;56.99
76156;BME280;64906;51.290;7.348;2023-08-12T10:35:08;98719.09;;;21.96;57.27
76156;BME280;64906;51.290;7.348;2023-08-12T10:37:34;98723.97;;;21.99;56.96
76156;BME280;64906;51.290;7.348;2023-08-12T10:40:03;98724.50;;;22.01;57.49
76156;BME280;64906;51.290;7.348;2023-08-12T10:42:48;98719.47;;;22.03;57.04
76156;BME280;64906;51.290;7.348;2023-08-12T10:45:15;98715.41;;;22.01;56.90
76156;BME280;64906;51.290;7.348;2023-08-12T10:47:43;98723.97;;;21.99;57.33
76156;BME280;64906;51.290;7.348;2023-08-12T10:50:22;98715.72;;;21.99;56.99
76156;BME280;64906;51.290;7.348;2023-08-12T10:52:51;98717.25;;;22.05;56.85
76156;BME280;64906;51.290;7.348;2023-08-12T10:55:25;98710.75;;;22.01;57.24
76156;BME280;64906;51.290;7.348;2023-08-12T10:57:54;98708.47;;;22.03;56.93
76156;BME280;64906;51.290;7.348;2023-08-12T11:00:25;98702.97;;;22.03;56.92
76156;BME280;64906;51.290;7.348;2023-08-12T11:02:55;98705.25;;;22.01;57.02
76156;BME280;64906;51.290;7.348;2023-08-12T11:05:21;98696.69;;;22.03;57.03
76156;BME280;64906;51.290;7.348;2023-08-12T11:07:58;98708.19;;;22.05;56.99
76156;BME280;64906;51.290;7.348;2023-08-12T11:10:26;98709.63;;;22.02;56.85
76156;BME280;64906;51.290;7.348;2023-08-12T11:15:19;98705.34;;;21.96;57.12
76156;BME280;64906;51.290;7.348;2023-08-12T11:17:53;98703.38;;;21.97;57.23
76156;BME280;64906;51.290;7.348;2023-08-12T11:20:20;98702.78;;;22.00;57.20
76156;BME280;64906;51.290;7.348;2023-08-12T11:22:46;98693.63;;;22.04;57.51
76156;BME280;64906;51.290;7.348;2023-08-12T11:25:12;98691.41;;;22.06;57.37
76156;BME280;64906;51.290;7.348;2023-08-12T11:27:44;98689.13;;;22.08;57.18
76156;BME280;64906;51.290;7.348;2023-08-12T11:30:12;98689.44;;;22.07;57.14
76156;BME280;64906;51.290;7.348;2023-08-12T11:32:38;98677.53;;;22.11;57.32
76156;BME280;64906;51.290;7.348;2023-08-12T11:35:06;98678.56;;;22.15;57.03
76156;BME280;64906;51.290;7.348;2023-08-12T11:37:32;98667.78;;;22.19;57.11
76156;BME280;64906;51.290;7.348;2023-08-12T11:39:58;98676.31;;;22.17;57.04
76156;BME280;64906;51.290;7.348;2023-08-12T11:42:23;98677.72;;;22.15;56.94
76156;BME280;64906;51.290;7.348;2023-08-12T11:44:49;98673.06;;;22.15;57.41
76156;BME280;64906;51.290;7.348;2023-08-12T11:47:14;98661.75;;;22.17;57.51
76156;BME280;64906;51.290;7.348;2023-08-12T11:49:39;98666.84;;;22.10;57.69
76156;BME280;64906;51.290;7.348;2023-08-12T11:52:05;98658.28;;;22.11;57.27
76156;BME280;64906;51.290;7.348;2023-08-12T11:54:31;98662.47;;;22.09;57.69
76156;BME280;64906;51.290;7.348;2023-08-12T11:56:58;98662.47;;;22.09;57.34
76156;BME280;64906;51.290;7.348;2023-08-12T11:59:24;98665.44;;;22.12;57.45
76156;BME280;64906;51.290;7.348;2023-08-12T12:01:51;98666.53;;;22.11;57.76
76156;BME280;64906;51.290;7.348;2023-08-12T12:04:17;98668.19;;;22.12;57.52
76156;BME280;64906;51.290;7.348;2023-08-12T12:09:10;98667.47;;;22.07;57.77
76156;BME280;64906;51.290;7.348;2023-08-12T12:11:36;98671.53;;;22.09;57.93
76156;BME280;64906;51.290;7.348;2023-08-12T12:14:05;98672.94;;;22.07;57.60
76156;BME280;64906;51.290;7.348;2023-08-12T12:16:48;98670.81;;;22.04;58.31
76156;BME280;64906;51.290;7.348;2023-08-12T12:21:41;98679.47;;;21.97;58.70
76156;BME280;64906;51.290;7.348;2023-08-12T12:24:07;98686.09;;;21.96;58.45
76156;BME280;64906;51.290;7.348;2023-08-12T12:26:33;98681.19;;;21.93;58.43
76156;BME280;64906;51.290;7.348;2023-08-12T12:28:59;98682.00;;;21.94;58.61
76156;BME280;64906;51.290;7.348;2023-08-12T12:31:24;98682.09;;;21.89;58.44
76156;BME280;64906;51.290;7.348;2023-08-12T12:33:49;98687.00;;;21.92;58.66
76156;BME280;64906;51.290;7.348;2023-08-12T12:36:15;98678.75;;;21.92;59.00
76156;BME280;64906;51.290;7.348;2023-08-12T12:38:40;98693.81;;;21.94;58.67
76156;BME280;64906;51.290;7.348;2023-08-12T12:41:05;98688.94;;;21.91;58.57
76156;BME280;64906;51.290;7.348;2023-08-12T12:43:30;98680.41;;;21.93;58.72
76156;BME280;64906;51.290;7.348;2023-08-12T12:45:56;98683.53;;;22.00;58.69
76156;BME280;64906;51.290;7.348;2023-08-12T12:48:21;98690.38;;;22.02;58.29
76156;BME280;64906;51.290;7.348;2023-08-12T12:50:46;98691.69;;;22.05;58.47
76156;BME280;64906;51.290;7.348;2023-08-12T12:53:12;98686.91;;;22.10;58.68
76156;BME280;64906;51.290;7.348;2023-08-12T12:55:37;98693.22;;;22.11;58.08
76156;BME280;64906;51.290;7.348;2023-08-12T12:58:03;98703.31;;;22.15;58.11
76156;BME280;64906;51.290;7.348;2023-08-12T13:00:28;98702.69;;;22.18;58.53
76156;BME280;64906;51.290;7.348;2023-08-12T13:02:53;98701.59;;;22.19;57.95